Tiempo atmosférico en la estación meteorológica de Mora, Toledo (717 m.)



Fecha
DESCASC
Temp. máxima en grados centígrados (hora)
DESCASC
Temp. mínima en grados centígrados (hora)
DESCASC
Temp. media en grados centígrados
DESCASC
Racha de viento máxima en m/sg (hora)
DESCASC
Velocidad máxima media en intervalos de 10 minutos(hora)
DESCASC
Precipitaciones diarias en mm
DESCASC
Precipitaciones de 00:00 a 06:00 en mm
DESCASC
Precipitaciones de 06:00 a 12:00 en mm
DESCASC
Precipitaciones de 12:00 a 18:00 en mm
DESCASC
Precipitaciones de 18:00 a 24:00 en mm
DESCASC
18-10-2020 22 (17:00) 6.1 (05:00) 14 5.28 (16:20) 2.78 (14:40) 0 0 0 0 0
17-10-2020 19.4 (17:10) 3.5 (08:40) 11.4 7.78 (15:30) 3.33 (15:30) 0 0 0 0 0
15-10-2020 17 (16:20) 4.3 (00:00) 10.7 8.61 (16:40) 5.28 (19:20) 0 0 0 0 0
14-10-2020 17.3 (17:20) 9.9 (00:00) 13.6 10 (17:30) 6.39 (17:30) 0 0 0 0 0
13-10-2020 23.6 (16:00) 7.8 (00:00) 15.7 8.61 (18:10) 5 (17:10) 0 0 0 0 0
12-10-2020 18.4 (17:00) 4.3 (00:00) 11.3 7.22 (15:20) 3.89 (15:40) 0 0 0 0 0
11-10-2020 19 (17:00) 7 (00:00) 13 8.61 (15:10) 5 (18:30) 0 0 0 0 0
10-10-2020 25.8 (16:00) 12.3 (00:00) 19 6.94 (15:40) 3.89 (18:50) 0 0 0 0 0
09-10-2020 28.6 (15:40) 13.2 (00:00) 20.9 5.83 (16:40) 3.61 (17:20) 0 0 0 0 0
08-10-2020 27.8 (16:00) 11.4 (00:00) 19.6 6.39 (16:50) 4.17 (16:50) 0 0 0 0 0
07-10-2020 27.9 (17:40) 11.2 (00:00) 19.5 4.44 (13:50) 2.22 (16:10) 0 0 0 0 0
06-10-2020 25.8 (17:10) 8.7 (00:00) 17.2 6.67 (17:00) 3.61 (13:10) 0 0 0 0 0
05-10-2020 19.4 (18:00) 6.5 (00:00) 12.9 10.28 (11:40) 6.39 (11:40) 0 0 0 0 0
04-10-2020 17.3 (16:30) 7.2 (00:00) 12.2 12.5 (17:00) 7.78 (17:10) 0 0 0 0 0
03-10-2020 17.6 (17:40) 6.3 (00:00) 12 10 (19:40) 5.83 (12:40) 0 0 0 0 0
02-10-2020 17.8 (11:50) 9.1 (00:00) 13.4 18.89 (13:00) 12.5 (13:00) 7.2 0 0 7.2 0
01-10-2020 24 (14:50) 11 (08:50) 17.5 9.72 (16:30) 6.39 (18:30) 0 0 0 0 0
30-09-2020 27.5 (16:10) 11.1 (00:00) 19.3 5.56 (14:50) 3.33 (18:20) 0 0 0 0 0
29-09-2020 27 (16:50) 10.4 (00:00) 18.7 4.72 (17:20) 2.5 (10:10) 0 0 0 0 0
28-09-2020 24.6 (17:00) 5.8 (00:00) 15.2 5.56 (15:50) 2.78 (17:10) 0 0 0 0 0
27-09-2020 22.5 (17:00) 10.8 (00:00) 16.7 9.17 (11:30) 5.83 (11:20) 0 0 0 0 0
26-09-2020 20.3 (16:30) 8.3 (00:00) 14.3 9.44 (16:40) 5.56 (17:50) 0 0 0 0 0
25-09-2020 19.5 (17:00) 9.8 (00:00) 14.7 11.39 (13:50) 6.39 (18:40) 0 0 0 0 0
24-09-2020 22.7 (14:40) 15.1 (00:00) 18.9 11.39 (11:20) 6.11 (20:00) 0.2 0 0 0.2 0
23-09-2020 24.6 (17:00) 16.2 (00:00) 20.4 9.17 (14:30) 5 (15:40) 0.8 0 0.8 0 0
22-09-2020 25.7 (17:40) 13.2 (00:00) 19.5 8.33 (17:40) 4.72 (18:50) 0 0 0 0 0
21-09-2020 25.2 (17:10) 12.6 (00:00) 18.9 7.22 (13:20) 3.61 (17:50) 0 0 0 0 0
20-09-2020 23.5 (18:00) 13.8 (00:00) 18.7 11.11 (14:20) 5 (16:20) 0 0 0 0 0

Gráficas

Temp. máximas Temp. mínimas Temp. medias Precipitaciones Rachas de viento máximas Velocidades máximas media en intervalos de 10 minutos

Datos horarios

Fecha y hora oficial Temperatura (ºC) Velocidad del viento (km/h) Dirección del viento Racha (km/h) Dirección de racha Precipitación (mm) Presión (hPa) Tendencia (hPa) Humedad (%)
2020-10-19 23:00:00 21.4 5 Sur 22 Sudoeste 0 -- -- 26
2020-10-19 22:00:00 22.8 14 Sur 28 Sur 0 -- -- 24
2020-10-19 21:00:00 22.7 6 Sur 26 Sur 0 -- -- 24
2020-10-19 20:00:00 23.8 12 Sur 21 Sudoeste 0 -- -- 23
2020-10-19 19:00:00 24.7 9 Sur 30 Sur 0 -- -- 22
2020-10-19 18:00:00 26 15 Sur 36 Sudeste 0 -- -- 22
2020-10-19 17:00:00 26.6 19 Sur 39 Sur 0 -- -- 22
2020-10-19 16:00:00 26.5 16 Sur 35 Sur 0 -- -- 22
2020-10-19 15:00:00 25.7 15 Sudeste 30 Sudeste 0 -- -- 25
2020-10-19 14:00:00 23.6 9 Sudeste 19 Sudeste 0 -- -- 29
2020-10-19 13:00:00 21.3 9 Sudeste 20 Sudeste 0 -- -- 34
2020-10-19 12:00:00 18.2 6 Sudeste 19 Sudeste 0 -- -- 42
2020-10-19 11:00:00 15.5 8 Sur 19 Sudeste 0 -- -- 50
2020-10-19 10:00:00 12.3 10 Sur 22 Sur 0 -- -- 63
2020-10-19 09:00:00 9 9 Sur 18 Sudeste 0 -- -- 77
2020-10-19 08:00:00 9.2 8 Sudeste 19 Sudeste 0 -- -- 74
2020-10-19 07:00:00 9.3 7 Sur 15 Sudeste 0 -- -- 69
2020-10-19 06:00:00 9.9 5 Sur 12 Sudeste 0 -- -- 66
2020-10-19 05:00:00 10.5 4 Sudeste 11 Sudeste 0 -- -- 59
2020-10-19 04:00:00 11.1 6 Sur 12 Sur 0 -- -- 52
2020-10-19 03:00:00 11.5 7 Sur 12 Sur 0 -- -- 49
2020-10-19 02:00:00 11.3 4 Sur 8 Sudeste 0 -- -- 45
2020-10-19 01:00:00 12.3 5 Sur 9 Sudeste 0 -- -- 40
2020-10-19 00:00:00 10.9 2 Sudoeste 4 Sudoeste 0 -- -- 42
2020-10-18 23:00:00 9.2 0 Calma 4 Sudeste 0 -- -- 44
2020-10-18 22:00:00 12.2 0 Calma 4 Sudeste 0 -- -- 38
2020-10-18 21:00:00 15.7 3 Sudeste 4 Sudeste 0 -- -- 32
2020-10-18 20:00:00 17.1 0 Calma 3 Este 0 -- -- 29
2020-10-18 19:00:00 19.5 2 Este 10 Sudeste 0 -- -- 23
2020-10-18 18:00:00 21.2 5 Sudeste 16 Nordeste 0 -- -- 22
2020-10-18 17:00:00 22 5 Este 19 Nordeste 0 -- -- 24
2020-10-18 16:00:00 21.4 5 Este 15 Nordeste 0 -- -- 26
2020-10-18 15:00:00 20.9 8 Este 18 Este 0 -- -- 28
2020-10-18 14:00:00 20 8 Nordeste 17 Nordeste 0 -- -- 30
2020-10-18 13:00:00 19.3 6 Este 18 Sudeste 0 -- -- 32
2020-10-18 12:00:00 18.7 6 Este 13 Sudeste 0 -- -- 33
2020-10-18 11:00:00 16.3 5 Sudeste 13 Sudeste 0 -- -- 36
2020-10-18 10:00:00 13.2 6 Sur 14 Sur 0 -- -- 41
2020-10-18 09:00:00 7.5 6 Sur 10 Sudeste 0 -- -- 55
2020-10-18 08:00:00 7.6 5 Sur 14 Sur 0 -- -- 55
2020-10-18 07:00:00 7.8 6 Sur 12 Sur 0 -- -- 54
2020-10-18 06:00:00 6.9 4 Sur 9 Sur 0 -- -- 56
2020-10-18 05:00:00 6.1 3 Sur 8 Sur 0 -- -- 58
2020-10-18 04:00:00 6.3 2 Sur 9 Sur 0 -- -- 58
2020-10-18 03:00:00 7 6 Sur 9 Sur 0 -- -- 55
2020-10-18 02:00:00 7.7 2 Sur 7 Sur 0 -- -- 54
2020-10-18 01:00:00 8.4 3 Sur 7 Sur 0 -- -- 52
2020-10-18 00:00:00 9.1 3 Sur 6 Sudeste 0 -- -- 51
2020-10-17 23:00:00 10.8 0 Calma 8 Sur 0 -- -- 47
2020-10-17 22:00:00 11.8 3 Sur 6 Sur 0 -- -- 42
2020-10-17 21:00:00 12.1 0 Calma 5 Norte 0 -- -- 41
2020-10-17 20:00:00 14.5 2 Norte 11 Noroeste 0 -- -- 37
2020-10-17 19:00:00 17.9 5 Noroeste 15 Noroeste 0 -- -- 32
2020-10-17 18:00:00 18.9 8 Noroeste 21 Noroeste 0 -- -- 30
2020-10-17 17:00:00 19.1 9 Noroeste 22 Norte 0 -- -- 29
2020-10-17 16:00:00 19 8 Oeste 28 Noroeste 0 -- -- 30
2020-10-17 15:00:00 18.6 6 Norte 17 Oeste 0 -- -- 32
2020-10-17 14:00:00 17.3 8 Noroeste 17 Oeste 0 -- -- 35
2020-10-17 13:00:00 17.5 6 Norte 16 Noroeste 0 -- -- 35
2020-10-17 12:00:00 16.3 3 Noroeste 9 Sur 0 -- -- 36
2020-10-17 11:00:00 13.9 2 Sur 4 Sur 0 -- -- 39
2020-10-17 10:00:00 9.9 0 Calma 4 Sur 0 -- -- 46
2020-10-17 09:00:00 4.3 2 Sur 7 Sudeste 0 -- -- 59
2020-10-17 08:00:00 4.2 5 Sur 10 Sur 0 -- -- 57
2020-10-17 07:00:00 4.6 4 Sur 10 Sur 0 -- -- 55
2020-10-17 06:00:00 5.8 6 Sur 10 Sur 0 -- -- 51
2020-10-17 05:00:00 5.7 5 Sur 9 Sur 0 -- -- 51
2020-10-17 04:00:00 6.7 4 Sur 8 Sur 0 -- -- 48
2020-10-17 03:00:00 7.6 5 Sur 10 Sur 0 -- -- 46
2020-10-17 02:00:00 7.8 5 Sur 10 Sur 0 -- -- 45
2020-10-17 01:00:00 8.3 5 Sur 9 Sur 0 -- -- 44
2020-10-17 00:00:00 7.6 3 Sudeste 8 Sudeste 0 -- -- 45
2020-10-16 23:00:00 8.3 5 Sur 7 Sur 0 -- -- 43
2020-10-16 22:00:00 9.6 2 Sur 4 Sur 0 -- -- 43
2020-10-16 21:00:00 10.5 0 Calma 5 Nordeste 0 -- -- 40
2020-10-16 20:00:00 12.1 4 Norte 12 Norte 0 -- -- 36
2020-10-16 19:00:00 15.3 8 Norte 17 Noroeste 0 -- -- 27
2020-10-16 18:00:00 16.1 12 Noroeste 21 Oeste 0 -- -- 26
2020-10-16 17:00:00 16 7 Noroeste 24 Oeste 0 -- -- 30
2020-10-16 16:00:00 15.6 8 Oeste 27 Noroeste 0 -- -- 31
2020-10-16 15:00:00 15.7 3 Sudeste 12 Nordeste 0 -- -- 32
2020-10-16 14:00:00 14.2 4 Este 13 Este 0 -- -- 37
2020-10-16 13:00:00 13.1 4 Norte 10 Nordeste 0 -- -- 40
2020-10-16 12:00:00 11.9 5 Nordeste 11 Nordeste 0 -- -- 44
2020-10-16 11:00:00 10.7 2 Sudeste 6 Nordeste 0 -- -- 51
2020-10-16 10:00:00 9 0 Calma 5 Sur 0 -- -- 57
2020-10-16 09:00:00 2.1 4 Sur 7 Sur 0 -- -- 77
2020-10-16 08:00:00 2.2 0 Calma 3 Sur 0 -- -- 78
2020-10-16 07:00:00 3.4 2 Sudeste 4 Sudeste 0 -- -- 73
2020-10-16 06:00:00 3.6 0 Calma 4 Sudoeste 0 -- -- 75
2020-10-16 05:00:00 3.9 0 Calma 5 Sudoeste 0 -- -- 74
2020-10-16 04:00:00 5 0 Calma 6 Nordeste 0 -- -- 70
2020-10-16 03:00:00 4.8 2 Norte 4 Norte 0 -- -- 70
2020-10-16 02:00:00 6.3 0 Calma 10 Este 0 -- -- 64
2020-10-16 01:00:00 7 0 Calma 4 Nordeste 0 -- -- 61
2020-10-16 00:00:00 7.4 3 Norte 6 Norte 0 -- -- 59
2020-10-15 23:00:00 9.8 4 Nordeste 7 Nordeste 0 -- -- 52
2020-10-15 22:00:00 11 5 Nordeste 13 Noroeste 0 -- -- 49
2020-10-15 21:00:00 11.7 0 Calma 14 Norte 0 -- -- 46
2020-10-15 20:00:00 13 9 Norte 30 Norte 0 -- -- 41
2020-10-15 19:00:00 15.8 16 Noroeste 30 Noroeste 0 -- -- 36
2020-10-15 18:00:00 16.3 16 Noroeste 27 Norte 0 -- -- 32
2020-10-15 17:00:00 16.9 13 Noroeste 31 Noroeste 0 -- -- 33
2020-10-15 16:00:00 15.8 12 Noroeste 30 Noroeste 0 -- -- 36
2020-10-15 15:00:00 15.8 12 Noroeste 23 Oeste 0 -- -- 40
2020-10-15 14:00:00 15.4 9 Norte 21 Noroeste 0 -- -- 41
2020-10-15 13:00:00 14.2 9 Oeste 17 Oeste 0 -- -- 44
2020-10-15 12:00:00 14.1 3 Noroeste 9 Norte 0 -- -- 45
2020-10-15 11:00:00 14 0 Calma 4 Nordeste 0 -- -- 45
2020-10-15 10:00:00 11 2 Sudeste 6 Sur 0 -- -- 50
2020-10-15 09:00:00 4.5 3 Sur 9 Sur 0 -- -- 67
2020-10-15 08:00:00 5.5 2 Sudeste 4 Sudeste 0 -- -- 64
2020-10-15 07:00:00 5.3 2 Sudeste 8 Sudeste 0 -- -- 64
2020-10-15 06:00:00 5.6 4 Sudoeste 14 Sudeste 0 -- -- 64
2020-10-15 05:00:00 6.3 3 Sur 7 Sudeste 0 -- -- 61
2020-10-15 04:00:00 7 0 Calma 7 Oeste 0 -- -- 59
2020-10-15 03:00:00 8.7 5 Noroeste 11 Noroeste 0 -- -- 52
2020-10-15 02:00:00 9.9 3 Norte 16 Oeste 0 -- -- 49
2020-10-15 01:00:00 9.5 5 Sur 17 Oeste 0 -- -- 50
2020-10-15 00:00:00 11.3 9 Oeste 19 Oeste 0 -- -- 47
2020-10-14 23:00:00 9.9 5 Noroeste 12 Noroeste 0 -- -- 51
2020-10-14 22:00:00 11.8 9 Noroeste 16 Noroeste 0 -- -- 45
2020-10-14 21:00:00 12.7 12 Noroeste 19 Noroeste 0 -- -- 41
2020-10-14 20:00:00 13.7 10 Noroeste 29 Norte 0 -- -- 38
2020-10-14 19:00:00 15.8 20 Noroeste 33 Noroeste 0 -- -- 35
2020-10-14 18:00:00 16.9 20 Noroeste 36 Noroeste 0 -- -- 32
2020-10-14 17:00:00 17.1 18 Noroeste 35 Noroeste 0 -- -- 33
2020-10-14 16:00:00 17 16 Noroeste 34 Noroeste 0 -- -- 37
2020-10-14 15:00:00 16.3 17 Noroeste 35 Noroeste 0 -- -- 37
2020-10-14 14:00:00 16 18 Norte 31 Noroeste 0 -- -- 40
2020-10-14 13:00:00 14.9 12 Norte 25 Noroeste 0 -- -- 44
2020-10-14 12:00:00 13.6 14 Noroeste 23 Norte 0 -- -- 49
2020-10-14 11:00:00 12.7 9 Noroeste 18 Norte 0 -- -- 55
2020-10-14 10:00:00 12.1 8 Norte 16 Norte 0 -- -- 57
2020-10-14 09:00:00 10.1 9 Norte 22 Norte 0 -- -- 64
2020-10-14 08:00:00 10.8 10 Norte 19 Noroeste 0 -- -- 61
2020-10-14 07:00:00 11.2 8 Noroeste 14 Noroeste 0 -- -- 62
2020-10-14 06:00:00 10.9 7 Noroeste 13 Noroeste 0 -- -- 65
2020-10-14 05:00:00 12 11 Noroeste 18 Noroeste 0 -- -- 62
2020-10-14 04:00:00 11.7 4 Noroeste 13 Noroeste 0 -- -- 63
2020-10-14 03:00:00 12.5 10 Noroeste 19 Noroeste 0 -- -- 61
2020-10-14 02:00:00 13.1 5 Norte 18 Noroeste 0 -- -- 62
2020-10-14 01:00:00 13 5 Noroeste 8 Norte 0 -- -- 67
2020-10-14 00:00:00 15.7 6 Oeste 13 Noroeste 0 -- -- 59
2020-10-13 23:00:00 15.8 5 Sudoeste 12 Sudoeste 0 -- -- 56
2020-10-13 22:00:00 16.4 5 Sudoeste 13 Oeste 0 -- -- 57
2020-10-13 21:00:00 17.5 6 Oeste 12 Oeste 0 -- -- 51
2020-10-13 20:00:00 19.5 7 Oeste 26 Oeste 0 -- -- 44
2020-10-13 19:00:00 22.2 15 Oeste 31 Oeste 0 -- -- 35
2020-10-13 18:00:00 23 15 Oeste 28 Oeste 0 -- -- 32
2020-10-13 17:00:00 22.9 17 Oeste 28 Oeste 0 -- -- 32
2020-10-13 16:00:00 23.6 4 Sudoeste 20 Oeste 0 -- -- 31
2020-10-13 15:00:00 22 10 Oeste 22 Oeste 0 -- -- 35
2020-10-13 14:00:00 22.1 10 Noroeste 21 Noroeste 0 -- -- 35
2020-10-13 13:00:00 20.7 12 Oeste 22 Oeste 0 -- -- 37
2020-10-13 12:00:00 19.6 6 Noroeste 19 Noroeste 0 -- -- 38
2020-10-13 11:00:00 18.1 3 Sudoeste 8 Sudoeste 0 -- -- 38
2020-10-13 10:00:00 14.2 4 Sur 8 Sur 0 -- -- 47
2020-10-13 09:00:00 8.4 6 Sur 8 Sur 0 -- -- 60
2020-10-13 08:00:00 8.2 3 Sur 7 Sudeste 0 -- -- 60
2020-10-13 07:00:00 8.2 2 Sur 6 Sur 0 -- -- 60
2020-10-13 06:00:00 8.7 3 Sur 6 Sudeste 0 -- -- 58
2020-10-13 05:00:00 8.9 2 Sudeste 6 Sudeste 0 -- -- 58
2020-10-13 04:00:00 8.9 3 Sudeste 9 Sur 0 -- -- 59
2020-10-13 03:00:00 9.6 3 Sur 5 Sur 0 -- -- 57
2020-10-13 02:00:00 9.5 3 Sur 11 Sur 0 -- -- 57
2020-10-13 01:00:00 -- -- -- -- -- -- -- -- --
2020-10-13 00:00:00 11.2 2 Sudeste 10 Oeste 0 -- -- 50
2020-10-12 23:00:00 11.6 4 Sur 13 Oeste 0 -- -- 49
2020-10-12 22:00:00 12.4 5 Oeste 12 Oeste 0 -- -- 46
2020-10-12 21:00:00 12.8 5 Noroeste 12 Oeste 0 -- -- 45
2020-10-12 20:00:00 15.2 4 Noroeste 11 Norte 0 -- -- 39
2020-10-12 19:00:00 17.6 8 Noroeste 21 Noroeste 0 -- -- 34
2020-10-12 18:00:00 -- -- -- -- -- -- -- -- --
2020-10-12 17:00:00 18.4 9 Norte 22 Norte 0 -- -- 33
2020-10-12 16:00:00 17.3 12 Noroeste 26 Norte 0 -- -- 36
2020-10-12 15:00:00 16.7 10 Norte 24 Norte 0 -- -- 38
2020-10-12 14:00:00 15.7 10 Nordeste 24 Norte 0 -- -- 41
2020-10-12 13:00:00 14.4 9 Norte 21 Nordeste 0 -- -- 45
2020-10-12 12:00:00 12.6 10 Nordeste 18 Norte 0 -- -- 50
2020-10-12 11:00:00 11.7 8 Norte 15 Norte 0 -- -- 55
2020-10-12 10:00:00 10.8 0 Calma 4 Norte 0 -- -- 57
2020-10-12 09:00:00 4.8 2 Sudoeste 6 Sudoeste 0 -- -- 78
2020-10-12 08:00:00 5.7 3 Noroeste 5 Noroeste 0 -- -- 70
2020-10-12 07:00:00 6 2 Oeste 8 Noroeste 0 -- -- 69
2020-10-12 06:00:00 5.8 2 Noroeste 10 Norte 0 -- -- 69
2020-10-12 05:00:00 5.9 3 Norte 11 Noroeste 0 -- -- 66
2020-10-12 04:00:00 -- -- -- -- -- -- -- -- --
2020-10-12 03:00:00 8.7 5 Nordeste 11 Nordeste 0 -- -- 55
2020-10-12 02:00:00 9.2 6 Nordeste 11 Nordeste 0 -- -- 53
2020-10-12 01:00:00 9.7 5 Nordeste 19 Norte 0 -- -- 51
2020-10-12 00:00:00 11.1 9 Nordeste 23 Norte 0 -- -- 47
2020-10-11 23:00:00 11.1 6 Norte 17 Nordeste 0 -- -- 50
2020-10-11 22:00:00 12.9 10 Norte 22 Norte 0 -- -- 44
2020-10-11 21:00:00 -- -- -- -- -- -- -- -- --
2020-10-11 20:00:00 -- -- -- -- -- -- -- -- --
2020-10-11 19:00:00 18.1 9 Norte 27 Norte 0 -- -- 32
2020-10-11 18:00:00 19 14 Norte 26 Norte 0 -- -- 30
2020-10-11 17:00:00 19 13 Norte 28 Nordeste 0 -- -- 27
2020-10-11 16:00:00 18.7 13 Norte 31 Noroeste 0 -- -- 32
2020-10-11 15:00:00 17.6 13 Norte 24 Noroeste 0 -- -- 35
2020-10-11 14:00:00 16.2 13 Norte 24 Nordeste 0 -- -- 40
2020-10-11 13:00:00 15 10 Norte 27 Norte 0 -- -- 44
2020-10-11 12:00:00 13.9 13 Nordeste 27 Nordeste 0 -- -- 49
2020-10-11 11:00:00 12.1 17 Nordeste 27 Nordeste 0 -- -- 55
2020-10-11 10:00:00 10.9 12 Nordeste 22 Norte 0 -- -- 63
2020-10-11 09:00:00 7.6 7 Norte 11 Norte 0 -- -- 76
2020-10-11 08:00:00 7.3 3 Norte 12 Norte 0 -- -- 74
2020-10-11 07:00:00 8.6 7 Norte 15 Norte 0 -- -- 70
2020-10-11 06:00:00 9.1 6 Norte 11 Norte 0 -- -- 67
2020-10-11 05:00:00 9.2 3 Norte 8 Norte 0 -- -- 67
2020-10-11 04:00:00 10.3 0 Calma 12 Nordeste 0 -- -- 66
2020-10-11 03:00:00 12.3 8 Nordeste 24 Norte 0 -- -- 60
2020-10-11 02:00:00 13 9 Norte 17 Norte 0 -- -- 63
2020-10-11 01:00:00 14.4 11 Nordeste 22 Norte 0 -- -- 62
2020-10-11 00:00:00 15.7 10 Norte 17 Norte 0 -- -- 58
2020-10-10 23:00:00 16.6 7 Norte 21 Norte 0 -- -- 56
2020-10-10 22:00:00 18.3 3 Nordeste 12 Norte 0 -- -- 47
2020-10-10 21:00:00 19.4 7 Norte 12 Norte 0 -- -- 45
2020-10-10 20:00:00 21 5 Norte 18 Norte 0 -- -- 41
2020-10-10 19:00:00 24 12 Norte 23 Norte 0 -- -- 36
2020-10-10 18:00:00 25.1 13 Norte 23 Noroeste 0 -- -- 34
2020-10-10 17:00:00 25.5 11 Norte 23 Norte 0 -- -- 33
2020-10-10 16:00:00 25.8 10 Norte 25 Norte 0 -- -- 33
2020-10-10 15:00:00 25 8 Nordeste 19 Norte 0 -- -- 37
2020-10-10 14:00:00 23.4 10 Nordeste 19 Norte 0 -- -- 42
2020-10-10 13:00:00 22.2 9 Nordeste 15 Nordeste 0 -- -- 44
2020-10-10 12:00:00 21.4 4 Norte 10 Nordeste 0 -- -- 47
2020-10-10 11:00:00 21.4 2 Norte 6 Noroeste 0 -- -- 44
2020-10-10 10:00:00 19.5 0 Calma 4 Noroeste 0 -- -- 50
2020-10-10 09:00:00 12.6 0 Calma 6 Sur 0 -- -- 71
2020-10-10 08:00:00 14.6 4 Sur 5 Sudeste 0 -- -- 64
2020-10-10 07:00:00 13.9 2 Sur 9 Sur 0 -- -- 66
2020-10-10 06:00:00 13.1 4 Sur 11 Sur 0 -- -- 68
2020-10-10 05:00:00 14.2 7 Sur 10 Sur 0 -- -- 64
2020-10-10 04:00:00 14.3 2 Sur 4 Sur 0 -- -- 64
2020-10-10 03:00:00 14.8 2 Sur 8 Sur 0 -- -- 61
2020-10-10 02:00:00 15.7 3 Sur 10 Sur 0 -- -- 59
2020-10-10 01:00:00 16.7 6 Sur 9 Sur 0 -- -- 56
2020-10-10 00:00:00 17.5 2 Sur 8 Sudoeste 0 -- -- 53
2020-10-09 23:00:00 18.6 5 Sudeste 6 Sudeste 0 -- -- 50
2020-10-09 22:00:00 19.1 5 Sur 7 Sur 0 -- -- 47
2020-10-09 21:00:00 19.9 0 Calma 4 Noroeste 0 -- -- 46
2020-10-09 20:00:00 22.1 2 Norte 4 Norte 0 -- -- 39
2020-10-09 19:00:00 24.8 4 Norte 13 Norte 0 -- -- 34
2020-10-09 18:00:00 25.3 8 Norte 19 Norte 0 -- -- 31
2020-10-09 17:00:00 26.4 8 Norte 21 Noroeste 0 -- -- 33
2020-10-09 16:00:00 27.6 10 Oeste 18 Oeste 0 -- -- 29
2020-10-09 15:00:00 26.7 4 Oeste 12 Oeste 0 -- -- 31
2020-10-09 14:00:00 25.5 5 Norte 11 Oeste 0 -- -- 40
2020-10-09 13:00:00 25.2 3 Sudeste 7 Noroeste 0 -- -- 38
2020-10-09 12:00:00 24.2 3 Sudeste 10 Sur 0 -- -- 42
2020-10-09 11:00:00 21 5 Sur 12 Sur 0 -- -- 53
2020-10-09 10:00:00 18.3 8 Sur 14 Sudeste 0 -- -- 66
2020-10-09 09:00:00 14.1 8 Sur 15 Sur 0 -- -- 82
2020-10-09 08:00:00 13.8 6 Sur 15 Sudeste 0 -- -- 78
2020-10-09 07:00:00 14.6 8 Sur 15 Sur 0 -- -- 62
2020-10-09 06:00:00 14.7 6 Sur 11 Sur 0 -- -- 60
2020-10-09 05:00:00 15.4 5 Sur 9 Sudeste 0 -- -- 59
2020-10-09 04:00:00 15.9 5 Sur 12 Sur 0 -- -- 58
2020-10-09 03:00:00 16 5 Sur 11 Sur 0 -- -- 57
2020-10-09 02:00:00 15.1 6 Sur 10 Sur 0 -- -- 61
2020-10-09 01:00:00 15.8 4 Sur 9 Sur 0 -- -- 60
2020-10-09 00:00:00 16.4 4 Sur 8 Sur 0 -- -- 58
2020-10-08 23:00:00 17.2 0 Calma 6 Sur 0 -- -- 55
2020-10-08 22:00:00 18.8 3 Sur 4 Sur 0 -- -- 50
2020-10-08 21:00:00 19.4 0 Calma 6 Norte 0 -- -- 48
2020-10-08 20:00:00 21.8 5 Norte 12 Norte 0 -- -- 42
2020-10-08 19:00:00 24.5 8 Norte 14 Norte 0 -- -- 36
2020-10-08 18:00:00 25.5 10 Norte 20 Norte 0 -- -- 34
2020-10-08 17:00:00 25.8 12 Norte 23 Noroeste 0 -- -- 32
2020-10-08 16:00:00 27.8 9 Norte 15 Norte 0 -- -- 30
2020-10-08 15:00:00 27.3 5 Nordeste 13 Norte 0 -- -- 31
2020-10-08 14:00:00 26.3 6 Norte 13 Norte 0 -- -- 32
2020-10-08 13:00:00 25.5 3 Sudoeste 9 Sur 0 -- -- 35
2020-10-08 12:00:00 22.9 5 Sudeste 15 Sur 0 -- -- 44
2020-10-08 11:00:00 20.1 7 Sur 15 Sur 0 -- -- 53
2020-10-08 10:00:00 17 5 Sur 12 Sur 0 -- -- 62
2020-10-08 09:00:00 13.8 6 Sur 13 Sur 0 -- -- 72
2020-10-08 08:00:00 13.3 3 Sur 10 Sur 0 -- -- 72
2020-10-08 07:00:00 11.8 5 Sur 9 Sur 0 -- -- 69
2020-10-08 06:00:00 12.4 5 Sur 10 Sur 0 -- -- 68
2020-10-08 05:00:00 12 6 Sur 9 Sur 0 -- -- 69
2020-10-08 04:00:00 12.5 2 Sur 5 Sur 0 -- -- 68
2020-10-08 03:00:00 13.1 0 Calma 7 Sur 0 -- -- 67
2020-10-08 02:00:00 13.7 3 Sur 9 Sur 0 -- -- 65
2020-10-08 01:00:00 14.8 2 Sur 5 Sur 0 -- -- 61
2020-10-08 00:00:00 15.4 2 Sur 7 Sur 0 -- -- 59
2020-10-07 23:00:00 17.1 5 Sudeste 8 Sudeste 0 -- -- 53
2020-10-07 22:00:00 17 0 Calma 5 Sur 0 -- -- 55
2020-10-07 21:00:00 19.8 0 Calma 5 Nordeste 0 -- -- 44
2020-10-07 20:00:00 22.1 4 Nordeste 8 Noroeste 0 -- -- 39
2020-10-07 19:00:00 25.8 4 Noroeste 8 Noroeste 0 -- -- 33
2020-10-07 18:00:00 26.9 3 Sur 8 Nordeste 0 -- -- 30
2020-10-07 17:00:00 26.1 4 Noroeste 14 Oeste 0 -- -- 32
2020-10-07 16:00:00 25.9 4 Nordeste 14 Sudoeste 0 -- -- 34
2020-10-07 15:00:00 25.1 4 Oeste 13 Nordeste 0 -- -- 37
2020-10-07 14:00:00 23.6 7 Noroeste 16 Norte 0 -- -- 42
2020-10-07 13:00:00 23.4 5 Norte 12 Norte 0 -- -- 42
2020-10-07 12:00:00 21.5 6 Norte 11 Noroeste 0 -- -- 50
2020-10-07 11:00:00 20.8 3 Sur 6 Sur 0 -- -- 52
2020-10-07 10:00:00 17.5 3 Sur 8 Sudeste 0 -- -- 64
2020-10-07 09:00:00 12.1 4 Sudeste 8 Sur 0 -- -- 82
2020-10-07 08:00:00 11.3 4 Sur 8 Sur 0 -- -- 84
2020-10-07 07:00:00 12.4 5 Sur 8 Sur 0 -- -- 81
2020-10-07 06:00:00 12.8 4 Sur 8 Sudeste 0 -- -- 82
2020-10-07 05:00:00 12.9 2 Sudeste 7 Sudeste 0 -- -- 79
2020-10-07 04:00:00 13.7 4 Sur 7 Sur 0 -- -- 78
2020-10-07 03:00:00 14.2 0 Calma 9 Sur 0 -- -- 76
2020-10-07 02:00:00 15.3 6 Sur 11 Sur 0 -- -- 71
2020-10-07 01:00:00 16.1 2 Sur 9 Sur 0 -- -- 69
2020-10-07 00:00:00 16.6 5 Sur 10 Sudeste 0 -- -- 65
2020-10-06 23:00:00 17.5 3 Sur 8 Sudoeste 0 -- -- 62
2020-10-06 22:00:00 18.4 5 Sudoeste 10 Oeste 0 -- -- 59
2020-10-06 21:00:00 19.2 4 Oeste 9 Oeste 0 -- -- 55
2020-10-06 20:00:00 21.4 3 Noroeste 15 Noroeste 0 -- -- 48
2020-10-06 19:00:00 24.2 10 Noroeste 19 Norte 0 -- -- 42
2020-10-06 18:00:00 24.8 13 Noroeste 22 Noroeste 0 -- -- 41
2020-10-06 17:00:00 25.7 7 Noroeste 24 Noroeste 0 -- -- 40
2020-10-06 16:00:00 24.8 6 Oeste 19 Noroeste 0 -- -- 42
2020-10-06 15:00:00 23.1 8 Noroeste 19 Oeste 0 -- -- 46
2020-10-06 14:00:00 21.6 7 Oeste 24 Noroeste 0 -- -- 51
2020-10-06 13:00:00 20.3 9 Noroeste 17 Noroeste 0 -- -- 53
2020-10-06 12:00:00 18.5 9 Noroeste 17 Noroeste 0 -- -- 57
2020-10-06 11:00:00 16.7 8 Noroeste 14 Noroeste 0 -- -- 63
2020-10-06 10:00:00 17.4 4 Sur 6 Sur 0 -- -- 58
2020-10-06 09:00:00 8.8 0 Calma 4 Sudeste 0 -- -- 82
2020-10-06 08:00:00 9.4 2 Sudeste 10 Sur 0 -- -- 79
2020-10-06 07:00:00 9.5 5 Sur 9 Sudeste 0 -- -- 76
2020-10-06 06:00:00 10.3 6 Sur 9 Sur 0 -- -- 77
2020-10-06 05:00:00 11 3 Sur 9 Sudeste 0 -- -- 75
2020-10-06 04:00:00 11.6 4 Sur 10 Sudeste 0 -- -- 74
2020-10-06 03:00:00 11.6 4 Sur 11 Sur 0 -- -- 70
2020-10-06 02:00:00 11.5 6 Sur 10 Sudeste 0 -- -- 65
2020-10-06 01:00:00 11.7 6 Sudeste 10 Sur 0 -- -- 60
2020-10-06 00:00:00 12.7 5 Sur 9 Sur 0 -- -- 55
2020-10-05 23:00:00 13.1 4 Sur 9 Sur 0 -- -- 53
2020-10-05 22:00:00 13.4 5 Sur 10 Sur 0 -- -- 52
2020-10-05 21:00:00 14.8 3 Sudoeste 9 Noroeste 0 -- -- 46
2020-10-05 20:00:00 16.8 5 Oeste 16 Oeste 0 -- -- 40
2020-10-05 19:00:00 18.7 13 Oeste 21 Noroeste 0 -- -- 36
2020-10-05 18:00:00 19.4 11 Noroeste 22 Oeste 0 -- -- 34
2020-10-05 17:00:00 19.1 6 Oeste 26 Oeste 0 -- -- 35
2020-10-05 16:00:00 18.2 8 Oeste 22 Oeste 0 -- -- 37
2020-10-05 15:00:00 17.3 10 Noroeste 27 Norte 0 -- -- 40
2020-10-05 14:00:00 16.8 14 Norte 30 Noroeste 0 -- -- 43
2020-10-05 13:00:00 15.3 14 Noroeste 29 Noroeste 0 -- -- 47
2020-10-05 12:00:00 14.3 18 Noroeste 37 Noroeste 0 -- -- 52
2020-10-05 11:00:00 13.5 13 Norte 21 Noroeste 0 -- -- 57
2020-10-05 10:00:00 13.7 0 Calma 5 Sudeste 0 -- -- 60
2020-10-05 09:00:00 7 3 Sur 8 Sudeste 0 -- -- 84
2020-10-05 08:00:00 6.5 4 Sur 7 Sudoeste 0 -- -- 83
2020-10-05 07:00:00 7.4 3 Sur 7 Sudoeste 0 -- -- 81
2020-10-05 06:00:00 8.3 0 Calma 4 Sur 0 -- -- 76
2020-10-05 05:00:00 8.3 0 Calma 12 Noroeste 0 -- -- 75
2020-10-05 04:00:00 9.4 3 Sudoeste 14 Oeste 0 -- -- 70
2020-10-05 03:00:00 10.1 5 Oeste 20 Oeste 0 -- -- 66
2020-10-05 02:00:00 10.6 6 Oeste 21 Sudoeste 0 -- -- 63
2020-10-05 01:00:00 11.1 9 Oeste 19 Sudoeste 0 -- -- 61
2020-10-05 00:00:00 11.2 9 Sudoeste 17 Sudoeste 0 -- -- 63
2020-10-04 23:00:00 11.9 5 Sudoeste 16 Sudoeste 0 -- -- 61
2020-10-04 22:00:00 12.3 7 Sur 17 Sudoeste 0 -- -- 63
2020-10-04 21:00:00 13 6 Sudoeste 16 Sudoeste 0 -- -- 62
2020-10-04 20:00:00 14.7 12 Oeste 29 Sudoeste 0 -- -- 54
2020-10-04 19:00:00 16.8 14 Oeste 33 Oeste 0 -- -- 52
2020-10-04 18:00:00 17 24 Oeste 42 Sudoeste 0 -- -- 52
2020-10-04 17:00:00 17.2 24 Oeste 45 Oeste 0 -- -- 55
2020-10-04 16:00:00 16.1 21 Oeste 36 Oeste 0 -- -- 62
2020-10-04 15:00:00 13.7 16 Oeste 30 Oeste 0 -- -- 80
2020-10-04 14:00:00 13.6 15 Sudoeste 32 Sudoeste 0 -- -- 76
2020-10-04 13:00:00 14.6 18 Oeste 30 Oeste 0 -- -- 62
2020-10-04 12:00:00 14.3 17 Oeste 30 Oeste 0 -- -- 58
2020-10-04 11:00:00 12.8 5 Sudoeste 15 Sudoeste 0 -- -- 64
2020-10-04 10:00:00 12.8 6 Sur 15 Sur 0 -- -- 59
2020-10-04 09:00:00 9.4 7 Sudoeste 14 Sur 0 -- -- 69
2020-10-04 08:00:00 7.8 6 Sur 14 Sudoeste 0 -- -- 74
2020-10-04 07:00:00 7.7 6 Sudoeste 13 Sudoeste 0 -- -- 74
2020-10-04 06:00:00 7.3 5 Sudoeste 14 Sudoeste 0 -- -- 75
2020-10-04 05:00:00 7.4 5 Sur 8 Sur 0 -- -- 76
2020-10-04 04:00:00 8.6 5 Sudoeste 8 Sudoeste 0 -- -- 71
2020-10-04 03:00:00 9.2 4 Sudoeste 13 Sudoeste 0 -- -- 69
2020-10-04 02:00:00 9.6 6 Sudoeste 12 Sudoeste 0 -- -- 67
2020-10-04 01:00:00 9.5 6 Sudoeste 13 Sudoeste 0 -- -- 67
2020-10-04 00:00:00 9.5 3 Sudoeste 11 Sudoeste 0 -- -- 67
2020-10-03 23:00:00 10.4 5 Sur 16 Sudoeste 0 -- -- 62
2020-10-03 22:00:00 12.1 8 Oeste 25 Oeste 0 -- -- 54
2020-10-03 21:00:00 13 13 Oeste 21 Oeste 0 -- -- 50
2020-10-03 20:00:00 14.2 14 Oeste 36 Oeste 0 -- -- 43
2020-10-03 19:00:00 15.9 20 Oeste 33 Oeste 0 -- -- 40
2020-10-03 18:00:00 17.4 13 Oeste 33 Oeste 0 -- -- 37
2020-10-03 17:00:00 17.1 14 Sudoeste 26 Sudoeste 0 -- -- 38
2020-10-03 16:00:00 17 14 Oeste 28 Oeste 0 -- -- 37
2020-10-03 15:00:00 16 15 Oeste 34 Oeste 0 -- -- 39
2020-10-03 14:00:00 15 17 Oeste 31 Oeste 0 -- -- 42
2020-10-03 13:00:00 14.4 16 Oeste 32 Oeste 0 -- -- 47
2020-10-03 12:00:00 13 15 Oeste 27 Oeste 0 -- -- 52
2020-10-03 11:00:00 11.3 19 Oeste 30 Oeste 0 -- -- 59
2020-10-03 10:00:00 9.5 10 Oeste 32 Oeste 0 -- -- 68
2020-10-03 09:00:00 6.8 18 Oeste 28 Oeste 0 -- -- 80
2020-10-03 08:00:00 6.3 8 Sudoeste 27 Oeste 0 -- -- 81
2020-10-03 07:00:00 6.7 14 Oeste 33 Oeste 0 -- -- 80
2020-10-03 06:00:00 6.8 14 Oeste 29 Oeste 0 -- -- 78
2020-10-03 05:00:00 7 15 Oeste 28 Oeste 0 -- -- 77
2020-10-03 04:00:00 7.4 16 Oeste 25 Oeste 0 -- -- 75
2020-10-03 03:00:00 7.6 16 Oeste 30 Oeste 0 -- -- 74
2020-10-03 02:00:00 8.2 13 Oeste 32 Oeste 0 -- -- 69
2020-10-03 01:00:00 8.7 21 Oeste 32 Oeste 0 -- -- 66
2020-10-03 00:00:00 9.2 15 Oeste 29 Oeste 0 -- -- 66
2020-10-02 23:00:00 9.5 9 Oeste 25 Oeste 0 -- -- 63
2020-10-02 22:00:00 10.3 17 Oeste 31 Oeste 0 -- -- 60
2020-10-02 21:00:00 10.8 12 Oeste 24 Oeste 0 -- -- 57
2020-10-02 20:00:00 12.2 15 Oeste 37 Noroeste 0 -- -- 45
2020-10-02 19:00:00 13.9 17 Noroeste 42 Noroeste 0 -- -- 40
2020-10-02 18:00:00 14.5 24 Noroeste 50 Oeste 0 -- -- 40
2020-10-02 17:00:00 14.5 25 Oeste 45 Oeste 0.2 -- -- 47
2020-10-02 16:00:00 10.8 10 Noroeste 40 Oeste 0.8 -- -- 80
2020-10-02 15:00:00 13 27 Oeste 54 Oeste 0 -- -- 81
2020-10-02 14:00:00 12 26 Oeste 66 Oeste 2.6 -- -- 92
2020-10-02 13:00:00 13.1 45 Oeste 68 Oeste 3.6 -- -- 86
2020-10-02 12:00:00 16.3 36 Sudoeste 63 Sudoeste 0 -- -- 81
2020-10-02 11:00:00 16.6 30 Sudoeste 55 Sudoeste 0 -- -- 74
2020-10-02 10:00:00 15.1 19 Sudoeste 42 Sudoeste 0 -- -- 78
2020-10-02 09:00:00 13.6 19 Sudoeste 41 Sudoeste 0 -- -- 81
2020-10-02 08:00:00 13.6 17 Sudoeste 43 Sudoeste 0 -- -- 78
2020-10-02 07:00:00 13.3 21 Sudoeste 38 Sudoeste 0 -- -- 76
2020-10-02 06:00:00 13.7 18 Sudoeste 32 Sudoeste 0 -- -- 70
2020-10-02 05:00:00 13.7 11 Sur 21 Sudoeste 0 -- -- 67
2020-10-02 04:00:00 14.5 10 Sudoeste 28 Sudoeste 0 -- -- 65
2020-10-02 03:00:00 15.3 12 Sudoeste 26 Sudoeste 0 -- -- 62
2020-10-02 02:00:00 15.6 11 Sudoeste 24 Sudoeste 0 -- -- 62
2020-10-02 01:00:00 15.7 7 Sudoeste 17 Sur 0 -- -- 60
2020-10-02 00:00:00 15.8 4 Sudoeste 13 Sudoeste 0 -- -- 60
2020-10-01 23:00:00 16.7 10 Sudoeste 19 Sudoeste 0 -- -- 56
2020-10-01 22:00:00 17.6 8 Oeste 29 Oeste 0 -- -- 54
2020-10-01 21:00:00 18.9 14 Oeste 28 Oeste 0 -- -- 51
2020-10-01 20:00:00 20.2 12 Oeste 28 Sudoeste 0 -- -- 50
2020-10-01 19:00:00 22.3 16 Oeste 32 Oeste 0 -- -- 45
2020-10-01 18:00:00 23.1 20 Oeste 33 Oeste 0 -- -- 44
2020-10-01 17:00:00 23.3 19 Oeste 35 Oeste 0 -- -- 42
2020-10-01 16:00:00 22.7 18 Oeste 33 Oeste 0 -- -- 41
2020-10-01 15:00:00 23.3 17 Oeste 33 Noroeste 0 -- -- 40
2020-10-01 14:00:00 22.7 6 Oeste 23 Oeste 0 -- -- 36
2020-10-01 13:00:00 22.4 5 Oeste 17 Oeste 0 -- -- 36
2020-10-01 12:00:00 20.7 4 Oeste 12 Noroeste 0 -- -- 42
2020-10-01 11:00:00 18.9 5 Sudoeste 13 Sudoeste 0 -- -- 54
2020-10-01 10:00:00 16.6 5 Sudoeste 9 Sudoeste 0 -- -- 60
2020-10-01 09:00:00 11.1 0 Calma 6 Sur 0 -- -- 63
2020-10-01 08:00:00 12.8 3 Sudeste 14 Noroeste 0 -- -- 58
2020-10-01 07:00:00 13.1 5 Sur 9 Sur 0 -- -- 56
2020-10-01 06:00:00 13.6 4 Sur 9 Sur 0 -- -- 53
2020-10-01 05:00:00 14.7 4 Sur 7 Sur 0 -- -- 50
2020-10-01 04:00:00 14.9 3 Sur 6 Sur 0 -- -- 49
2020-10-01 03:00:00 15 0 Calma 12 Oeste 0 -- -- 49
2020-10-01 02:00:00 16.1 3 Sur 9 Sudoeste 0 -- -- 46
2020-10-01 01:00:00 17.5 3 Sur 10 Sudoeste 0 -- -- 44
2020-10-01 00:00:00 17.6 3 Sudoeste 9 Sudoeste 0 -- -- 43
2020-09-30 23:00:00 18.7 4 Sudoeste 13 Sudoeste 0 -- -- 41
2020-09-30 22:00:00 20.7 4 Oeste 12 Oeste 0 -- -- 36
2020-09-30 21:00:00 21.4 5 Oeste 12 Sudoeste 0 -- -- 33
2020-09-30 20:00:00 23 4 Sudoeste 14 Noroeste 0 -- -- 32
2020-09-30 19:00:00 24.9 7 Noroeste 18 Sudoeste 0 -- -- 29
2020-09-30 18:00:00 25.9 10 Oeste 20 Oeste 0 -- -- 27
2020-09-30 17:00:00 26.3 11 Oeste 20 Noroeste 0 -- -- 26
2020-09-30 16:00:00 27 9 Oeste 20 Oeste 0 -- -- 24
2020-09-30 15:00:00 26 5 Noroeste 20 Noroeste 0 -- -- 25
2020-09-30 14:00:00 26.1 4 Noroeste 13 Noroeste 0 -- -- 25
2020-09-30 13:00:00 25.4 5 Nordeste 10 Norte 0 -- -- 26
2020-09-30 12:00:00 25.2 2 Noroeste 7 Noroeste 0 -- -- 26
2020-09-30 11:00:00 22.1 3 Sur 9 Sur 0 -- -- 31
2020-09-30 10:00:00 18.1 5 Sur 10 Sur 0 -- -- 37
2020-09-30 09:00:00 12.9 3 Sur 9 Sur 0 -- -- 46
2020-09-30 08:00:00 11.6 4 Sur 8 Sur 0 -- -- 49
2020-09-30 07:00:00 11.6 4 Sur 8 Sur 0 -- -- 47
2020-09-30 06:00:00 12.2 4 Sur 8 Sur 0 -- -- 46
2020-09-30 05:00:00 12.9 3 Sur 6 Sur 0 -- -- 44
2020-09-30 04:00:00 13.3 0 Calma 6 Sur 0 -- -- 43
2020-09-30 03:00:00 14.1 3 Sur 6 Sudeste 0 -- -- 41
2020-09-30 02:00:00 14.9 2 Sur 9 Sur 0 -- -- 39
2020-09-30 01:00:00 15 3 Sur 10 Sur 0 -- -- 39
2020-09-30 00:00:00 16.3 4 Sudeste 6 Sudeste 0 -- -- 36
2020-09-29 23:00:00 16.6 2 Sur 6 Sur 0 -- -- 37
2020-09-29 22:00:00 16.9 0 Calma 2 Este 0 -- -- 37
2020-09-29 21:00:00 19.4 0 Calma 7 Norte 0 -- -- 31
2020-09-29 20:00:00 22.6 5 Norte 11 Norte 0 -- -- 26
2020-09-29 19:00:00 25.6 7 Norte 13 Norte 0 -- -- 22
2020-09-29 18:00:00 26.5 6 Norte 17 Noroeste 0 -- -- 21
2020-09-29 17:00:00 26.7 6 Noroeste 17 Oeste 0 -- -- 21
2020-09-29 16:00:00 26.3 7 Noroeste 17 Oeste 0 -- -- 21
2020-09-29 15:00:00 26.2 3 Este 14 Norte 0 -- -- 21
2020-09-29 14:00:00 -- -- -- -- -- -- -- -- --
2020-09-29 13:00:00 -- -- -- -- -- -- -- -- --
2020-09-29 12:00:00 -- -- -- -- -- -- -- -- --
2020-09-29 11:00:00 -- -- -- -- -- -- -- -- --
2020-09-29 10:00:00 16.9 8 Sur 15 Sur 0 -- -- 44
2020-09-29 09:00:00 12.8 3 Oeste 12 Sur 0 -- -- 52
2020-09-29 08:00:00 10.8 4 Sur 8 Sur 0 -- -- 52
2020-09-29 07:00:00 12.7 6 Sur 13 Sur 0 -- -- 44
2020-09-29 06:00:00 10.8 0 Calma 8 Sur 0 -- -- 44
2020-09-29 05:00:00 12.5 5 Sur 10 Sur 0 -- -- 40
2020-09-29 04:00:00 12.8 4 Sur 7 Sudeste 0 -- -- 40
2020-09-29 03:00:00 12.7 2 Sudeste 7 Sudeste 0 -- -- 41
2020-09-29 02:00:00 12.2 0 Calma 5 Sur 0 -- -- 42
2020-09-29 01:00:00 13.6 0 Calma 8 Sur 0 -- -- 39
2020-09-29 00:00:00 14.3 3 Sudeste 6 Sudoeste 0 -- -- 38
2020-09-28 23:00:00 15.1 3 Sur 6 Sur 0 -- -- 36
2020-09-28 22:00:00 15.7 0 Calma 2 Este 0 -- -- 37
2020-09-28 21:00:00 17.1 2 Nordeste 7 Norte 0 -- -- 33
2020-09-28 20:00:00 19.9 5 Norte 15 Norte 0 -- -- 29
2020-09-28 19:00:00 23.1 7 Norte 14 Noroeste 0 -- -- 23
2020-09-28 18:00:00 24.2 8 Norte 19 Oeste 0 -- -- 19
2020-09-28 17:00:00 24.6 5 Norte 18 Oeste 0 -- -- 20
2020-09-28 16:00:00 23.4 9 Noroeste 20 Nordeste 0 -- -- 21
2020-09-28 15:00:00 22.9 6 Oeste 14 Oeste 0 -- -- 22
2020-09-28 14:00:00 21.8 4 Oeste 11 Sudoeste 0 -- -- 27
2020-09-28 13:00:00 20.3 4 Noroeste 14 Nordeste 0 -- -- 31
2020-09-28 12:00:00 19.6 3 Sudoeste 13 Sudoeste 0 -- -- 33
2020-09-28 11:00:00 19.4 4 Sudeste 11 Sudeste 0 -- -- 35
2020-09-28 10:00:00 17 0 Calma 6 Sur 0 -- -- 39
2020-09-28 09:00:00 8.5 3 Sudeste 6 Sudeste 0 -- -- 59
2020-09-28 08:00:00 5.9 0 Calma 6 Sudeste 0 -- -- 65
2020-09-28 07:00:00 7.5 0 Calma 8 Sudeste 0 -- -- 62
2020-09-28 06:00:00 8.4 0 Calma 6 Sur 0 -- -- 60
2020-09-28 05:00:00 8.8 3 Sur 6 Sur 0 -- -- 58
2020-09-28 04:00:00 9.1 0 Calma 9 Sur 0 -- -- 58
2020-09-28 03:00:00 10 0 Calma 12 Sur 0 -- -- 55
2020-09-28 02:00:00 11 0 Calma 7 Sudoeste 0 -- -- 52
2020-09-28 01:00:00 11.8 3 Oeste 6 Sudoeste 0 -- -- 50
2020-09-28 00:00:00 11.1 6 Norte 9 Noroeste 0 -- -- 52
2020-09-27 23:00:00 13.9 4 Norte 9 Norte 0 -- -- 46
2020-09-27 22:00:00 15.6 6 Norte 14 Noroeste 0 -- -- 43
2020-09-27 21:00:00 16.9 8 Noroeste 14 Noroeste 0 -- -- 41
2020-09-27 20:00:00 19.4 7 Noroeste 25 Noroeste 0 -- -- 34
2020-09-27 19:00:00 21.7 14 Noroeste 23 Noroeste 0 -- -- 32
2020-09-27 18:00:00 22 15 Noroeste 31 Noroeste 0 -- -- 34
2020-09-27 17:00:00 22.5 13 Noroeste 25 Noroeste 0 -- -- 35
2020-09-27 16:00:00 22.3 10 Oeste 25 Oeste 0 -- -- 40
2020-09-27 15:00:00 21.4 6 Oeste 18 Oeste 0 -- -- 44
2020-09-27 14:00:00 19.1 9 Norte 18 Noroeste 0 -- -- 53
2020-09-27 13:00:00 19.6 10 Nordeste 24 Norte 0 -- -- 51
2020-09-27 12:00:00 18.7 14 Norte 33 Noroeste 0 -- -- 56
2020-09-27 11:00:00 16.9 21 Noroeste 30 Noroeste 0 -- -- 61
2020-09-27 10:00:00 16 16 Noroeste 25 Oeste 0 -- -- 64
2020-09-27 09:00:00 12.8 5 Oeste 10 Oeste 0 -- -- 79
2020-09-27 08:00:00 10.9 6 Sudoeste 12 Oeste 0 -- -- 85
2020-09-27 07:00:00 12 4 Sudoeste 19 Oeste 0 -- -- 79
2020-09-27 06:00:00 12.3 9 Oeste 24 Oeste 0 -- -- 78
2020-09-27 05:00:00 13.1 9 Oeste 16 Oeste 0 -- -- 73
2020-09-27 04:00:00 13.3 10 Oeste 25 Oeste 0 -- -- 70
2020-09-27 03:00:00 14 14 Oeste 23 Oeste 0 -- -- 65
2020-09-27 02:00:00 14.5 14 Oeste 24 Oeste 0 -- -- 62
2020-09-27 01:00:00 14 11 Oeste 23 Oeste 0 -- -- 60
2020-09-27 00:00:00 14.7 13 Oeste 24 Oeste 0 -- -- 53
2020-09-26 23:00:00 15.2 11 Oeste 17 Oeste 0 -- -- 52
2020-09-26 22:00:00 15.5 5 Oeste 12 Oeste 0 -- -- 53
2020-09-26 21:00:00 16.7 7 Oeste 18 Oeste 0 -- -- 48
2020-09-26 20:00:00 18.3 11 Oeste 28 Oeste 0 -- -- 41
2020-09-26 19:00:00 19.8 15 Oeste 28 Noroeste 0 -- -- 37
2020-09-26 18:00:00 19.8 17 Oeste 30 Oeste 0 -- -- 36
2020-09-26 17:00:00 20 16 Oeste 34 Oeste 0 -- -- 35
2020-09-26 16:00:00 19.9 17 Noroeste 31 Oeste 0 -- -- 37
2020-09-26 15:00:00 18.9 16 Noroeste 32 Oeste 0 -- -- 40
2020-09-26 14:00:00 18 14 Noroeste 32 Norte 0 -- -- 40
2020-09-26 13:00:00 16.9 16 Noroeste 29 Noroeste 0 -- -- 41
2020-09-26 12:00:00 14.9 17 Noroeste 26 Noroeste 0 -- -- 45
2020-09-26 11:00:00 13.9 13 Norte 23 Noroeste 0 -- -- 50
2020-09-26 10:00:00 12.4 7 Noroeste 14 Noroeste 0 -- -- 55
2020-09-26 09:00:00 10.1 6 Noroeste 13 Noroeste 0 -- -- 63
2020-09-26 08:00:00 8.4 3 Oeste 8 Oeste 0 -- -- 67
2020-09-26 07:00:00 9.7 3 Oeste 19 Noroeste 0 -- -- 62
2020-09-26 06:00:00 9.5 4 Oeste 12 Oeste 0 -- -- 63
2020-09-26 05:00:00 10.5 6 Noroeste 15 Noroeste 0 -- -- 59
2020-09-26 04:00:00 11.1 6 Oeste 14 Noroeste 0 -- -- 57
2020-09-26 03:00:00 12.1 9 Noroeste 20 Oeste 0 -- -- 53
2020-09-26 02:00:00 11.6 5 Noroeste 18 Noroeste 0 -- -- 54
2020-09-26 01:00:00 12.3 9 Noroeste 20 Noroeste 0 -- -- 54
2020-09-26 00:00:00 13.1 10 Noroeste 21 Norte 0 -- -- 52
2020-09-25 23:00:00 13.3 9 Norte 20 Norte 0 -- -- 50
2020-09-25 22:00:00 14.2 12 Norte 24 Noroeste 0 -- -- 46
2020-09-25 21:00:00 14.9 10 Norte 32 Norte 0 -- -- 43
2020-09-25 20:00:00 16.3 22 Noroeste 34 Noroeste 0 -- -- 39
2020-09-25 19:00:00 18.4 20 Norte 37 Noroeste 0 -- -- 34
2020-09-25 18:00:00 19.4 19 Noroeste 35 Noroeste 0 -- -- 33
2020-09-25 17:00:00 19.5 22 Noroeste 34 Noroeste 0 -- -- 32
2020-09-25 16:00:00 19 20 Noroeste 37 Norte 0 -- -- 32
2020-09-25 15:00:00 18.4 17 Noroeste 30 Noroeste 0 -- -- 34
2020-09-25 14:00:00 17.6 17 Noroeste 41 Noroeste 0 -- -- 37
2020-09-25 13:00:00 16.6 20 Norte 33 Norte 0 -- -- 39
2020-09-25 12:00:00 15.4 21 Noroeste 29 Noroeste 0 -- -- 54
2020-09-25 11:00:00 14.6 15 Noroeste 23 Noroeste 0 -- -- 60
2020-09-25 10:00:00 13.2 14 Oeste 22 Oeste 0 -- -- 70
2020-09-25 09:00:00 11.4 9 Oeste 16 Oeste 0 -- -- 75
2020-09-25 08:00:00 9.8 4 Oeste 12 Oeste 0 -- -- 79
2020-09-25 07:00:00 10.7 5 Oeste 11 Oeste 0 -- -- 74
2020-09-25 06:00:00 11.6 5 Noroeste 10 Oeste 0 -- -- 71
2020-09-25 05:00:00 11.9 0 Calma 10 Oeste 0 -- -- 70
2020-09-25 04:00:00 12.3 3 Sur 12 Sudeste 0 -- -- 70
2020-09-25 03:00:00 13.2 5 Sur 17 Oeste 0 -- -- 72
2020-09-25 02:00:00 14 6 Oeste 15 Oeste 0 -- -- 71
2020-09-25 01:00:00 14.4 2 Sudeste 11 Noroeste 0 -- -- 72
2020-09-25 00:00:00 16.1 9 Oeste 25 Oeste 0 -- -- 64
2020-09-24 23:00:00 16.5 8 Oeste 23 Oeste 0 -- -- 66
2020-09-24 22:00:00 17.7 15 Oeste 29 Oeste 0 -- -- 61
2020-09-24 21:00:00 18.4 12 Oeste 30 Oeste 0 -- -- 67
2020-09-24 20:00:00 20 22 Oeste 36 Oeste 0 -- -- 62
2020-09-24 19:00:00 21.5 16 Oeste 35 Sudoeste 0 -- -- 63
2020-09-24 18:00:00 20.4 11 Oeste 28 Oeste 0 -- -- 76
2020-09-24 17:00:00 19.2 15 Oeste 35 Oeste 0.2 -- -- 86
2020-09-24 16:00:00 21.9 18 Oeste 39 Oeste 0 -- -- 58
2020-09-24 15:00:00 22.7 17 Oeste 36 Sudoeste 0 -- -- 56
2020-09-24 14:00:00 22 21 Sudoeste 36 Sudoeste 0 -- -- 58
2020-09-24 13:00:00 21 17 Sudoeste 39 Oeste 0 -- -- 62
2020-09-24 12:00:00 20.5 18 Sudoeste 41 Sudoeste 0 -- -- 66
2020-09-24 11:00:00 20.8 18 Sudoeste 35 Sudoeste 0 -- -- 66
2020-09-24 10:00:00 19.9 13 Sudoeste 25 Sudoeste 0 -- -- 71
2020-09-24 09:00:00 17.3 10 Sudoeste 18 Sudoeste 0 -- -- 81
2020-09-24 08:00:00 16 4 Sur 12 Sudeste 0 -- -- 85
2020-09-24 07:00:00 15.7 3 Sudeste 11 Sur 0 -- -- 85
2020-09-24 06:00:00 15.7 3 Sur 6 Sudeste 0 -- -- 82
2020-09-24 05:00:00 15.7 3 Sudeste 9 Sudoeste 0 -- -- 83
2020-09-24 04:00:00 16 4 Sudoeste 10 Sur 0 -- -- 82
2020-09-24 03:00:00 16.6 4 Sudoeste 14 Oeste 0 -- -- 79
2020-09-24 02:00:00 17.6 5 Oeste 14 Sudoeste 0 -- -- 74
2020-09-24 01:00:00 18.2 5 Oeste 13 Oeste 0 -- -- 71
2020-09-24 00:00:00 19.1 5 Oeste 17 Oeste 0 -- -- 67
2020-09-23 23:00:00 19.5 10 Oeste 19 Sudoeste 0 -- -- 63
2020-09-23 22:00:00 18.5 0 Calma 15 Sudoeste 0 -- -- 64
2020-09-23 21:00:00 20 7 Sudoeste 18 Oeste 0 -- -- 58
2020-09-23 20:00:00 21.4 11 Oeste 28 Oeste 0 -- -- 54
2020-09-23 19:00:00 22.7 12 Oeste 30 Sudoeste 0 -- -- 46
2020-09-23 18:00:00 24.4 16 Sudoeste 28 Oeste 0 -- -- 41
2020-09-23 17:00:00 24.6 16 Oeste 31 Oeste 0 -- -- 43
2020-09-23 16:00:00 23.2 18 Oeste 32 Oeste 0 -- -- 49
2020-09-23 15:00:00 23.3 16 Oeste 33 Sudoeste 0 -- -- 49
2020-09-23 14:00:00 23.3 15 Oeste 30 Sudoeste 0 -- -- 52
2020-09-23 13:00:00 21.8 18 Oeste 30 Sudoeste 0 -- -- 60
2020-09-23 12:00:00 20.3 12 Sudoeste 20 Sur 0 -- -- 68
2020-09-23 11:00:00 18.6 5 Oeste 9 Oeste 0 -- -- 77
2020-09-23 10:00:00 18 4 Oeste 7 Sudoeste 0 -- -- 80
2020-09-23 09:00:00 16.5 3 Sudoeste 6 Sudoeste 0.2 -- -- 86
2020-09-23 08:00:00 16.3 3 Sudoeste 9 Sudeste 0.6 -- -- 87
2020-09-23 07:00:00 17.4 0 Calma 8 Oeste 0 -- -- 76
2020-09-23 06:00:00 17.6 4 Oeste 8 Oeste 0 -- -- 72
2020-09-23 05:00:00 18.2 3 Sur 8 Sudoeste 0 -- -- 67
2020-09-23 04:00:00 18.1 4 Sur 7 Sudeste 0 -- -- 66
2020-09-23 03:00:00 18 4 Sur 10 Sur 0 -- -- 65
2020-09-23 02:00:00 18.4 6 Sudoeste 14 Sudoeste 0 -- -- 65
2020-09-23 01:00:00 18.2 4 Oeste 10 Sudoeste 0 -- -- 64
2020-09-23 00:00:00 18.8 7 Sudoeste 15 Sudoeste 0 -- -- 61
2020-09-22 23:00:00 19.1 5 Sudoeste 11 Sudoeste 0 -- -- 61
2020-09-22 22:00:00 20 4 Oeste 10 Oeste 0 -- -- 57
2020-09-22 21:00:00 21.6 7 Oeste 19 Oeste 0 -- -- 52
2020-09-22 20:00:00 23.1 11 Oeste 27 Oeste 0 -- -- 46
2020-09-22 19:00:00 24.2 14 Oeste 27 Oeste 0 -- -- 42
2020-09-22 18:00:00 25 16 Oeste 30 Oeste 0 -- -- 40
2020-09-22 17:00:00 25.3 12 Noroeste 24 Sudoeste 0 -- -- 39
2020-09-22 16:00:00 25 13 Oeste 28 Sudoeste 0 -- -- 39
2020-09-22 15:00:00 24.6 8 Sudoeste 22 Oeste 0 -- -- 41
2020-09-22 14:00:00 23.1 11 Sudoeste 22 Oeste 0 -- -- 42
2020-09-22 13:00:00 22.7 7 Oeste 20 Oeste 0 -- -- 43
2020-09-22 12:00:00 21.6 8 Oeste 17 Noroeste 0 -- -- 46
2020-09-22 11:00:00 20.8 6 Oeste 12 Oeste 0 -- -- 47
2020-09-22 10:00:00 20 2 Sudeste 6 Sur 0 -- -- 51
2020-09-22 09:00:00 14.7 3 Sudeste 6 Sur 0 -- -- 66
2020-09-22 08:00:00 13.4 3 Sur 5 Sur 0 -- -- 71
2020-09-22 07:00:00 14.3 4 Sudoeste 6 Sudoeste 0 -- -- 69
2020-09-22 06:00:00 14.7 4 Sur 9 Sudoeste 0 -- -- 66
2020-09-22 05:00:00 15.5 6 Sudoeste 14 Sudoeste 0 -- -- 64
2020-09-22 04:00:00 16.1 8 Sudoeste 13 Sudoeste 0 -- -- 62
2020-09-22 03:00:00 16.5 8 Sudoeste 14 Sudoeste 0 -- -- 61
2020-09-22 02:00:00 16.6 6 Sudoeste 12 Sudoeste 0 -- -- 62
2020-09-22 01:00:00 16 2 Sudeste 7 Sur 0 -- -- 64
2020-09-22 00:00:00 16.7 3 Sudoeste 6 Sur 0 -- -- 61
2020-09-21 23:00:00 17.8 3 Sur 12 Oeste 0 -- -- 54
2020-09-21 22:00:00 19.2 7 Oeste 14 Noroeste 0 -- -- 48
2020-09-21 21:00:00 20.2 7 Oeste 13 Oeste 0 -- -- 46
2020-09-21 20:00:00 22.1 9 Noroeste 18 Noroeste 0 -- -- 49
2020-09-21 19:00:00 23.7 10 Noroeste 21 Noroeste 0 -- -- 43
2020-09-21 18:00:00 24.4 10 Oeste 22 Noroeste 0 -- -- 39
2020-09-21 17:00:00 24.8 10 Norte 17 Norte 0 -- -- 39
2020-09-21 16:00:00 24.5 9 Sudoeste 21 Sudoeste 0 -- -- 38
2020-09-21 15:00:00 23.4 6 Noroeste 18 Oeste 0 -- -- 42
2020-09-21 14:00:00 23.2 7 Oeste 26 Nordeste 0 -- -- 44
2020-09-21 13:00:00 22.5 4 Sudeste 18 Norte 0 -- -- 47
2020-09-21 12:00:00 21.5 4 Norte 10 Sudoeste 0 -- -- 51
2020-09-21 11:00:00 21.4 3 Sur 6 Sudoeste 0 -- -- 52
2020-09-21 10:00:00 18.4 2 Sur 8 Sur 0 -- -- 67
2020-09-21 09:00:00 13.9 5 Sur 8 Sur 0 -- -- 81
2020-09-21 08:00:00 12.6 5 Sur 9 Sur 0 -- -- 85
2020-09-21 07:00:00 13 5 Sur 9 Sur 0 -- -- 84
2020-09-21 06:00:00 13.4 5 Sur 9 Sudeste 0 -- -- 84
2020-09-21 05:00:00 14.2 4 Sudoeste 6 Oeste 0 -- -- 82
2020-09-21 04:00:00 14.4 3 Sur 9 Sudoeste 0 -- -- 81
2020-09-21 03:00:00 15.1 5 Oeste 10 Sudoeste 0 -- -- 79
2020-09-21 02:00:00 15.8 5 Sudeste 10 Sudeste 0 -- -- 78
2020-09-21 01:00:00 16.1 3 Sur 8 Sur 0 -- -- 78
2020-09-21 00:00:00 16.3 4 Sur 8 Sur 0 -- -- 78
2020-09-20 23:00:00 17 4 Sudoeste 8 Sudoeste 0 -- -- 78
2020-09-20 22:00:00 17.5 2 Norte 6 Oeste 0 -- -- 74
2020-09-20 21:00:00 18.9 3 Noroeste 23 Oeste 0 -- -- 68
2020-09-20 20:00:00 20.8 14 Oeste 24 Oeste 0 -- -- 62
2020-09-20 19:00:00 22.2 13 Oeste 25 Oeste 0 -- -- 58
2020-09-20 18:00:00 23.5 17 Oeste 27 Sudoeste 0 -- -- 48
2020-09-20 17:00:00 22.6 10 Sudoeste 31 Oeste 0 -- -- 50
2020-09-20 16:00:00 21.1 13 Oeste 32 Oeste 0 -- -- 58
2020-09-20 15:00:00 20.1 15 Oeste 40 Sudoeste 0 -- -- 66
2020-09-20 14:00:00 20.4 10 Sudoeste 22 Sudoeste 0 -- -- 62
2020-09-20 13:00:00 20.2 10 Sudoeste 29 Sudoeste 0 -- -- 61
2020-09-20 12:00:00 19.4 10 Sudoeste 22 Sudoeste 0 -- -- 62
2020-09-20 11:00:00 19.1 9 Sudoeste 19 Sudoeste 0 -- -- 66
2020-09-20 10:00:00 18.2 9 Sudoeste 17 Sudoeste 0 -- -- 70
2020-09-20 09:00:00 16.8 4 Sudeste 8 Sur 0 -- -- 77
2020-09-20 08:00:00 13.9 4 Sur 10 Sudeste 0 -- -- 85
2020-09-20 07:00:00 14.1 4 Sur 8 Sur 0 -- -- 85
2020-09-20 06:00:00 14.6 5 Sur 9 Sur 0 -- -- 83
2020-09-20 05:00:00 15.7 2 Oeste 5 Oeste 0 -- -- 80
2020-09-20 04:00:00 16.5 2 Oeste 10 Oeste 0 -- -- 75
2020-09-20 03:00:00 17.1 3 Sur 8 Sudeste 0 -- -- 69
2020-09-20 02:00:00 17 5 Sudeste 8 Sudeste 0 -- -- 68
2020-09-20 01:00:00 17.1 5 Sudoeste 11 Sudoeste 0 -- -- 67
2020-09-20 00:00:00 17.5 4 Oeste 14 Sudoeste 0 -- -- 64